sensor_id;sensor_type;location;lat;lon;timestamp;P1;durP1;ratioP1;P2;durP2;ratioP2
61085;SDS011;46967;48.876;2.136;2023-04-07T00:01:36;11.00;;;1.55;;
61085;SDS011;46967;48.876;2.136;2023-04-07T00:04:01;8.98;;;1.45;;
61085;SDS011;46967;48.876;2.136;2023-04-07T00:06:26;9.05;;;1.35;;
61085;SDS011;46967;48.876;2.136;2023-04-07T00:08:52;8.63;;;1.83;;
61085;SDS011;46967;48.876;2.136;2023-04-07T00:11:18;12.98;;;1.38;;
61085;SDS011;46967;48.876;2.136;2023-04-07T00:13:43;6.03;;;1.17;;
61085;SDS011;46967;48.876;2.136;2023-04-07T00:16:08;11.23;;;1.85;;
61085;SDS011;46967;48.876;2.136;2023-04-07T00:18:34;10.90;;;1.67;;
61085;SDS011;46967;48.876;2.136;2023-04-07T00:20:59;7.22;;;1.35;;
61085;SDS011;46967;48.876;2.136;2023-04-07T00:23:24;6.88;;;1.38;;
61085;SDS011;46967;48.876;2.136;2023-04-07T00:25:51;8.80;;;1.50;;
61085;SDS011;46967;48.876;2.136;2023-04-07T00:28:16;9.55;;;1.65;;
61085;SDS011;46967;48.876;2.136;2023-04-07T00:30:41;7.22;;;1.60;;
61085;SDS011;46967;48.876;2.136;2023-04-07T00:33:07;6.53;;;1.48;;
61085;SDS011;46967;48.876;2.136;2023-04-07T00:35:32;10.90;;;2.25;;
61085;SDS011;46967;48.876;2.136;2023-04-07T00:37:57;8.60;;;1.70;;
61085;SDS011;46967;48.876;2.136;2023-04-07T00:40:23;10.13;;;1.95;;
61085;SDS011;46967;48.876;2.136;2023-04-07T00:42:48;6.85;;;1.38;;
61085;SDS011;46967;48.876;2.136;2023-04-07T00:45:14;7.85;;;1.48;;
61085;SDS011;46967;48.876;2.136;2023-04-07T00:47:39;11.52;;;2.42;;
61085;SDS011;46967;48.876;2.136;2023-04-07T00:50:05;8.30;;;1.50;;
61085;SDS011;46967;48.876;2.136;2023-04-07T00:52:31;5.55;;;1.42;;
61085;SDS011;46967;48.876;2.136;2023-04-07T00:54:58;6.38;;;1.38;;
61085;SDS011;46967;48.876;2.136;2023-04-07T00:57:24;8.40;;;2.10;;
61085;SDS011;46967;48.876;2.136;2023-04-07T00:59:52;8.43;;;1.38;;
61085;SDS011;46967;48.876;2.136;2023-04-07T01:02:23;8.05;;;1.80;;
61085;SDS011;46967;48.876;2.136;2023-04-07T01:10:11;8.65;;;1.48;;
61085;SDS011;46967;48.876;2.136;2023-04-07T01:12:51;5.38;;;1.60;;
61085;SDS011;46967;48.876;2.136;2023-04-07T01:15:21;9.18;;;1.75;;
61085;SDS011;46967;48.876;2.136;2023-04-07T01:17:59;8.20;;;1.58;;
61085;SDS011;46967;48.876;2.136;2023-04-07T01:20:35;6.38;;;1.60;;
61085;SDS011;46967;48.876;2.136;2023-04-07T01:23:04;8.02;;;1.70;;
61085;SDS011;46967;48.876;2.136;2023-04-07T01:30:28;12.10;;;1.88;;
61085;SDS011;46967;48.876;2.136;2023-04-07T01:32:57;8.65;;;2.00;;
61085;SDS011;46967;48.876;2.136;2023-04-07T01:35:24;12.85;;;1.80;;
61085;SDS011;46967;48.876;2.136;2023-04-07T01:37:53;8.88;;;1.65;;
61085;SDS011;46967;48.876;2.136;2023-04-07T01:40:20;8.52;;;1.77;;
61085;SDS011;46967;48.876;2.136;2023-04-07T01:42:46;8.48;;;1.52;;
61085;SDS011;46967;48.876;2.136;2023-04-07T01:45:14;6.60;;;1.70;;
61085;SDS011;46967;48.876;2.136;2023-04-07T01:47:40;8.73;;;1.50;;
61085;SDS011;46967;48.876;2.136;2023-04-07T01:50:07;8.50;;;1.67;;
61085;SDS011;46967;48.876;2.136;2023-04-07T01:52:35;7.97;;;1.48;;
61085;SDS011;46967;48.876;2.136;2023-04-07T01:55:05;10.63;;;1.80;;
61085;SDS011;46967;48.876;2.136;2023-04-07T01:57:31;9.18;;;2.30;;
61085;SDS011;46967;48.876;2.136;2023-04-07T01:59:56;10.82;;;2.28;;
61085;SDS011;46967;48.876;2.136;2023-04-07T02:02:22;5.90;;;1.40;;
61085;SDS011;46967;48.876;2.136;2023-04-07T02:04:54;7.68;;;1.73;;
61085;SDS011;46967;48.876;2.136;2023-04-07T02:07:31;7.45;;;1.77;;
61085;SDS011;46967;48.876;2.136;2023-04-07T02:10:04;9.88;;;1.92;;
61085;SDS011;46967;48.876;2.136;2023-04-07T02:12:32;10.32;;;1.95;;
61085;SDS011;46967;48.876;2.136;2023-04-07T02:14:59;10.98;;;1.70;;
61085;SDS011;46967;48.876;2.136;2023-04-07T02:17:25;9.73;;;2.00;;
61085;SDS011;46967;48.876;2.136;2023-04-07T02:19:52;9.85;;;1.60;;
61085;SDS011;46967;48.876;2.136;2023-04-07T02:22:19;11.60;;;2.10;;
61085;SDS011;46967;48.876;2.136;2023-04-07T02:24:45;9.35;;;1.70;;
61085;SDS011;46967;48.876;2.136;2023-04-07T02:27:11;6.43;;;1.20;;
61085;SDS011;46967;48.876;2.136;2023-04-07T02:29:36;9.27;;;2.40;;
61085;SDS011;46967;48.876;2.136;2023-04-07T02:32:01;9.00;;;1.88;;
61085;SDS011;46967;48.876;2.136;2023-04-07T02:34:27;8.45;;;1.67;;
61085;SDS011;46967;48.876;2.136;2023-04-07T02:36:52;6.15;;;1.58;;
61085;SDS011;46967;48.876;2.136;2023-04-07T02:39:17;7.95;;;1.77;;
61085;SDS011;46967;48.876;2.136;2023-04-07T02:41:43;6.80;;;1.80;;
61085;SDS011;46967;48.876;2.136;2023-04-07T02:44:08;10.13;;;2.13;;
61085;SDS011;46967;48.876;2.136;2023-04-07T02:46:33;9.48;;;2.17;;
61085;SDS011;46967;48.876;2.136;2023-04-07T02:48:59;8.02;;;1.65;;
61085;SDS011;46967;48.876;2.136;2023-04-07T02:51:24;10.05;;;1.73;;
61085;SDS011;46967;48.876;2.136;2023-04-07T02:53:51;10.52;;;2.22;;
61085;SDS011;46967;48.876;2.136;2023-04-07T02:56:16;9.80;;;2.03;;
61085;SDS011;46967;48.876;2.136;2023-04-07T02:58:41;11.93;;;2.20;;
61085;SDS011;46967;48.876;2.136;2023-04-07T03:01:07;13.48;;;2.05;;
61085;SDS011;46967;48.876;2.136;2023-04-07T03:03:32;11.98;;;2.00;;
61085;SDS011;46967;48.876;2.136;2023-04-07T03:05:58;14.30;;;2.58;;
61085;SDS011;46967;48.876;2.136;2023-04-07T03:08:23;11.45;;;2.35;;
61085;SDS011;46967;48.876;2.136;2023-04-07T03:10:48;15.88;;;2.70;;
61085;SDS011;46967;48.876;2.136;2023-04-07T03:13:14;10.82;;;2.40;;
61085;SDS011;46967;48.876;2.136;2023-04-07T03:15:43;13.13;;;1.90;;
61085;SDS011;46967;48.876;2.136;2023-04-07T03:18:08;9.45;;;2.13;;
61085;SDS011;46967;48.876;2.136;2023-04-07T03:20:33;14.25;;;2.33;;
61085;SDS011;46967;48.876;2.136;2023-04-07T03:22:59;10.77;;;1.90;;
61085;SDS011;46967;48.876;2.136;2023-04-07T03:25:24;20.80;;;2.83;;
61085;SDS011;46967;48.876;2.136;2023-04-07T03:27:50;17.17;;;2.60;;
61085;SDS011;46967;48.876;2.136;2023-04-07T03:30:16;11.52;;;2.60;;
61085;SDS011;46967;48.876;2.136;2023-04-07T03:32:41;7.93;;;1.85;;
61085;SDS011;46967;48.876;2.136;2023-04-07T03:35:07;11.43;;;2.45;;
61085;SDS011;46967;48.876;2.136;2023-04-07T03:37:32;13.32;;;2.17;;
61085;SDS011;46967;48.876;2.136;2023-04-07T03:39:58;9.82;;;2.13;;
61085;SDS011;46967;48.876;2.136;2023-04-07T03:42:23;8.70;;;3.25;;
61085;SDS011;46967;48.876;2.136;2023-04-07T03:44:48;10.35;;;2.40;;
61085;SDS011;46967;48.876;2.136;2023-04-07T03:47:13;13.27;;;2.22;;
61085;SDS011;46967;48.876;2.136;2023-04-07T03:49:39;10.98;;;1.90;;
61085;SDS011;46967;48.876;2.136;2023-04-07T03:52:04;12.15;;;2.10;;
61085;SDS011;46967;48.876;2.136;2023-04-07T03:54:30;10.70;;;1.90;;
61085;SDS011;46967;48.876;2.136;2023-04-07T03:56:55;12.45;;;2.10;;
61085;SDS011;46967;48.876;2.136;2023-04-07T03:59:21;9.30;;;1.90;;
61085;SDS011;46967;48.876;2.136;2023-04-07T04:01:47;9.05;;;1.80;;
61085;SDS011;46967;48.876;2.136;2023-04-07T04:04:12;10.10;;;1.92;;
61085;SDS011;46967;48.876;2.136;2023-04-07T04:06:37;9.70;;;1.98;;
61085;SDS011;46967;48.876;2.136;2023-04-07T04:09:03;8.73;;;2.00;;
61085;SDS011;46967;48.876;2.136;2023-04-07T04:11:28;6.07;;;1.80;;
61085;SDS011;46967;48.876;2.136;2023-04-07T04:13:55;9.70;;;1.77;;
61085;SDS011;46967;48.876;2.136;2023-04-07T04:16:21;10.73;;;2.30;;
61085;SDS011;46967;48.876;2.136;2023-04-07T04:18:46;7.47;;;2.03;;
61085;SDS011;46967;48.876;2.136;2023-04-07T04:21:11;13.30;;;2.03;;
61085;SDS011;46967;48.876;2.136;2023-04-07T04:23:37;10.60;;;2.33;;
61085;SDS011;46967;48.876;2.136;2023-04-07T04:26:02;5.90;;;1.63;;
61085;SDS011;46967;48.876;2.136;2023-04-07T04:28:28;8.25;;;1.85;;
61085;SDS011;46967;48.876;2.136;2023-04-07T04:30:53;7.75;;;1.85;;
61085;SDS011;46967;48.876;2.136;2023-04-07T04:33:19;10.70;;;1.90;;
61085;SDS011;46967;48.876;2.136;2023-04-07T04:35:45;9.07;;;1.70;;
61085;SDS011;46967;48.876;2.136;2023-04-07T04:38:11;7.22;;;1.83;;
61085;SDS011;46967;48.876;2.136;2023-04-07T04:40:36;7.32;;;1.90;;
61085;SDS011;46967;48.876;2.136;2023-04-07T04:43:02;8.02;;;1.65;;
61085;SDS011;46967;48.876;2.136;2023-04-07T04:45:31;7.43;;;1.80;;
61085;SDS011;46967;48.876;2.136;2023-04-07T04:47:59;8.25;;;1.90;;
61085;SDS011;46967;48.876;2.136;2023-04-07T04:50:25;8.30;;;1.60;;
61085;SDS011;46967;48.876;2.136;2023-04-07T04:52:50;10.63;;;3.13;;
61085;SDS011;46967;48.876;2.136;2023-04-07T04:55:15;5.72;;;1.50;;
61085;SDS011;46967;48.876;2.136;2023-04-07T04:57:41;11.80;;;2.40;;
61085;SDS011;46967;48.876;2.136;2023-04-07T05:00:06;8.85;;;1.90;;
61085;SDS011;46967;48.876;2.136;2023-04-07T05:02:32;6.85;;;2.15;;
61085;SDS011;46967;48.876;2.136;2023-04-07T05:04:57;7.28;;;1.75;;
61085;SDS011;46967;48.876;2.136;2023-04-07T05:07:23;6.20;;;1.77;;
61085;SDS011;46967;48.876;2.136;2023-04-07T05:09:48;6.95;;;1.85;;
61085;SDS011;46967;48.876;2.136;2023-04-07T05:12:14;3.53;;;1.80;;
61085;SDS011;46967;48.876;2.136;2023-04-07T05:14:40;7.53;;;1.80;;
61085;SDS011;46967;48.876;2.136;2023-04-07T05:17:05;8.50;;;1.70;;
61085;SDS011;46967;48.876;2.136;2023-04-07T05:19:30;7.18;;;2.13;;
61085;SDS011;46967;48.876;2.136;2023-04-07T05:21:56;7.50;;;2.05;;
61085;SDS011;46967;48.876;2.136;2023-04-07T05:24:22;8.35;;;2.30;;
61085;SDS011;46967;48.876;2.136;2023-04-07T05:26:47;12.32;;;2.60;;
61085;SDS011;46967;48.876;2.136;2023-04-07T05:29:12;8.68;;;2.13;;
61085;SDS011;46967;48.876;2.136;2023-04-07T05:31:38;8.85;;;2.55;;
61085;SDS011;46967;48.876;2.136;2023-04-07T05:34:05;8.25;;;2.45;;
61085;SDS011;46967;48.876;2.136;2023-04-07T05:36:30;14.35;;;2.78;;
61085;SDS011;46967;48.876;2.136;2023-04-07T05:38:55;8.40;;;2.80;;
61085;SDS011;46967;48.876;2.136;2023-04-07T05:41:21;11.68;;;2.60;;
61085;SDS011;46967;48.876;2.136;2023-04-07T05:43:46;8.82;;;2.80;;
61085;SDS011;46967;48.876;2.136;2023-04-07T05:46:11;9.23;;;3.63;;
61085;SDS011;46967;48.876;2.136;2023-04-07T05:48:37;15.52;;;4.03;;
61085;SDS011;46967;48.876;2.136;2023-04-07T05:51:02;8.60;;;3.17;;
61085;SDS011;46967;48.876;2.136;2023-04-07T05:53:28;9.75;;;3.13;;
61085;SDS011;46967;48.876;2.136;2023-04-07T05:55:53;9.50;;;3.50;;
61085;SDS011;46967;48.876;2.136;2023-04-07T05:58:18;10.40;;;3.72;;
61085;SDS011;46967;48.876;2.136;2023-04-07T06:00:44;10.30;;;3.28;;
61085;SDS011;46967;48.876;2.136;2023-04-07T06:03:09;10.18;;;3.92;;
61085;SDS011;46967;48.876;2.136;2023-04-07T06:05:35;12.45;;;3.97;;
61085;SDS011;46967;48.876;2.136;2023-04-07T06:08:00;11.20;;;3.92;;
61085;SDS011;46967;48.876;2.136;2023-04-07T06:10:26;12.20;;;4.60;;
61085;SDS011;46967;48.876;2.136;2023-04-07T06:12:51;8.80;;;3.65;;
61085;SDS011;46967;48.876;2.136;2023-04-07T06:15:16;9.25;;;4.32;;
61085;SDS011;46967;48.876;2.136;2023-04-07T06:17:42;13.75;;;5.20;;
61085;SDS011;46967;48.876;2.136;2023-04-07T06:20:09;9.00;;;3.88;;
61085;SDS011;46967;48.876;2.136;2023-04-07T06:22:35;9.98;;;4.15;;
61085;SDS011;46967;48.876;2.136;2023-04-07T06:25:01;11.63;;;5.05;;
61085;SDS011;46967;48.876;2.136;2023-04-07T06:27:26;11.43;;;5.05;;
61085;SDS011;46967;48.876;2.136;2023-04-07T06:29:51;12.70;;;6.35;;
61085;SDS011;46967;48.876;2.136;2023-04-07T06:32:17;16.17;;;6.22;;
61085;SDS011;46967;48.876;2.136;2023-04-07T06:34:42;20.45;;;6.75;;
61085;SDS011;46967;48.876;2.136;2023-04-07T06:37:08;12.15;;;6.82;;
61085;SDS011;46967;48.876;2.136;2023-04-07T06:39:33;13.43;;;6.47;;
61085;SDS011;46967;48.876;2.136;2023-04-07T06:41:59;15.00;;;7.03;;
61085;SDS011;46967;48.876;2.136;2023-04-07T06:44:25;13.13;;;6.90;;
61085;SDS011;46967;48.876;2.136;2023-04-07T06:46:51;14.70;;;7.18;;
61085;SDS011;46967;48.876;2.136;2023-04-07T06:49:17;15.80;;;6.60;;
61085;SDS011;46967;48.876;2.136;2023-04-07T06:51:43;14.30;;;7.18;;
61085;SDS011;46967;48.876;2.136;2023-04-07T06:54:09;14.48;;;6.85;;
61085;SDS011;46967;48.876;2.136;2023-04-07T06:56:38;17.65;;;7.15;;
61085;SDS011;46967;48.876;2.136;2023-04-07T06:59:06;15.02;;;6.50;;
61085;SDS011;46967;48.876;2.136;2023-04-07T07:01:32;16.70;;;7.32;;
61085;SDS011;46967;48.876;2.136;2023-04-07T07:03:57;16.20;;;6.63;;
61085;SDS011;46967;48.876;2.136;2023-04-07T07:06:24;11.43;;;7.10;;
61085;SDS011;46967;48.876;2.136;2023-04-07T07:08:50;17.00;;;7.53;;
61085;SDS011;46967;48.876;2.136;2023-04-07T07:11:16;15.55;;;7.10;;
61085;SDS011;46967;48.876;2.136;2023-04-07T07:13:41;16.27;;;7.57;;
61085;SDS011;46967;48.876;2.136;2023-04-07T07:16:06;15.68;;;7.32;;
61085;SDS011;46967;48.876;2.136;2023-04-07T07:18:32;19.33;;;6.55;;
61085;SDS011;46967;48.876;2.136;2023-04-07T07:20:57;12.95;;;6.72;;
61085;SDS011;46967;48.876;2.136;2023-04-07T07:23:22;13.68;;;6.72;;
61085;SDS011;46967;48.876;2.136;2023-04-07T07:25:48;12.73;;;6.15;;
61085;SDS011;46967;48.876;2.136;2023-04-07T07:28:13;13.20;;;6.22;;
61085;SDS011;46967;48.876;2.136;2023-04-07T07:30:38;13.80;;;6.13;;
61085;SDS011;46967;48.876;2.136;2023-04-07T07:33:05;11.35;;;5.65;;
61085;SDS011;46967;48.876;2.136;2023-04-07T07:35:30;12.35;;;5.85;;
61085;SDS011;46967;48.876;2.136;2023-04-07T07:37:56;13.38;;;5.50;;
61085;SDS011;46967;48.876;2.136;2023-04-07T07:40:22;13.40;;;5.60;;
61085;SDS011;46967;48.876;2.136;2023-04-07T07:42:47;11.48;;;5.15;;
61085;SDS011;46967;48.876;2.136;2023-04-07T07:45:14;14.68;;;5.60;;
61085;SDS011;46967;48.876;2.136;2023-04-07T07:47:41;12.02;;;5.72;;
61085;SDS011;46967;48.876;2.136;2023-04-07T07:50:07;13.35;;;5.13;;
61085;SDS011;46967;48.876;2.136;2023-04-07T07:52:32;13.10;;;5.25;;
61085;SDS011;46967;48.876;2.136;2023-04-07T07:54:57;12.48;;;5.10;;
61085;SDS011;46967;48.876;2.136;2023-04-07T07:57:23;11.20;;;5.10;;
61085;SDS011;46967;48.876;2.136;2023-04-07T07:59:48;9.85;;;5.22;;
61085;SDS011;46967;48.876;2.136;2023-04-07T08:02:13;14.15;;;5.55;;
61085;SDS011;46967;48.876;2.136;2023-04-07T08:04:39;12.18;;;5.70;;
61085;SDS011;46967;48.876;2.136;2023-04-07T08:07:04;7.28;;;4.70;;
61085;SDS011;46967;48.876;2.136;2023-04-07T08:09:30;11.63;;;5.28;;
61085;SDS011;46967;48.876;2.136;2023-04-07T08:11:58;10.50;;;4.28;;
61085;SDS011;46967;48.876;2.136;2023-04-07T08:14:23;16.10;;;4.75;;
61085;SDS011;46967;48.876;2.136;2023-04-07T08:16:49;10.52;;;4.63;;
61085;SDS011;46967;48.876;2.136;2023-04-07T08:19:14;11.90;;;4.68;;
61085;SDS011;46967;48.876;2.136;2023-04-07T08:21:40;15.57;;;4.35;;
61085;SDS011;46967;48.876;2.136;2023-04-07T08:24:05;10.60;;;5.07;;
61085;SDS011;46967;48.876;2.136;2023-04-07T08:26:31;11.60;;;4.60;;
61085;SDS011;46967;48.876;2.136;2023-04-07T08:28:57;10.18;;;4.70;;
61085;SDS011;46967;48.876;2.136;2023-04-07T08:31:22;13.38;;;5.00;;
61085;SDS011;46967;48.876;2.136;2023-04-07T08:33:48;12.13;;;4.93;;
61085;SDS011;46967;48.876;2.136;2023-04-07T08:36:18;13.60;;;4.57;;
61085;SDS011;46967;48.876;2.136;2023-04-07T08:38:46;10.48;;;4.70;;
61085;SDS011;46967;48.876;2.136;2023-04-07T08:41:12;9.55;;;4.28;;
61085;SDS011;46967;48.876;2.136;2023-04-07T08:46:07;12.90;;;4.38;;
61085;SDS011;46967;48.876;2.136;2023-04-07T08:48:34;9.93;;;4.68;;
61085;SDS011;46967;48.876;2.136;2023-04-07T08:51:06;16.30;;;4.68;;
61085;SDS011;46967;48.876;2.136;2023-04-07T08:53:48;14.98;;;4.72;;
61085;SDS011;46967;48.876;2.136;2023-04-07T08:56:15;8.60;;;4.45;;
61085;SDS011;46967;48.876;2.136;2023-04-07T08:58:41;14.13;;;4.60;;
61085;SDS011;46967;48.876;2.136;2023-04-07T09:01:08;11.68;;;4.22;;
61085;SDS011;46967;48.876;2.136;2023-04-07T09:03:34;10.07;;;3.95;;
61085;SDS011;46967;48.876;2.136;2023-04-07T09:06:00;9.85;;;3.92;;
61085;SDS011;46967;48.876;2.136;2023-04-07T09:08:26;9.52;;;3.55;;
61085;SDS011;46967;48.876;2.136;2023-04-07T09:10:52;11.10;;;3.80;;
61085;SDS011;46967;48.876;2.136;2023-04-07T09:13:18;9.60;;;3.53;;
61085;SDS011;46967;48.876;2.136;2023-04-07T09:15:43;8.57;;;3.72;;
61085;SDS011;46967;48.876;2.136;2023-04-07T09:18:09;11.13;;;4.07;;
61085;SDS011;46967;48.876;2.136;2023-04-07T09:20:54;11.90;;;4.10;;
61085;SDS011;46967;48.876;2.136;2023-04-07T09:23:27;12.98;;;4.70;;
61085;SDS011;46967;48.876;2.136;2023-04-07T09:25:57;11.38;;;4.50;;
61085;SDS011;46967;48.876;2.136;2023-04-07T09:28:25;11.93;;;3.90;;
61085;SDS011;46967;48.876;2.136;2023-04-07T09:31:02;7.95;;;3.85;;
61085;SDS011;46967;48.876;2.136;2023-04-07T09:33:28;10.40;;;3.92;;
61085;SDS011;46967;48.876;2.136;2023-04-07T09:35:54;12.00;;;3.83;;
61085;SDS011;46967;48.876;2.136;2023-04-07T09:38:21;15.40;;;4.20;;
61085;SDS011;46967;48.876;2.136;2023-04-07T09:40:46;14.75;;;4.60;;
61085;SDS011;46967;48.876;2.136;2023-04-07T09:43:15;10.98;;;3.65;;
61085;SDS011;46967;48.876;2.136;2023-04-07T09:45:41;10.10;;;3.90;;
61085;SDS011;46967;48.876;2.136;2023-04-07T09:48:08;7.63;;;3.30;;
61085;SDS011;46967;48.876;2.136;2023-04-07T09:50:43;11.50;;;3.65;;
61085;SDS011;46967;48.876;2.136;2023-04-07T09:53:13;10.93;;;3.85;;
61085;SDS011;46967;48.876;2.136;2023-04-07T09:55:43;11.13;;;3.22;;
61085;SDS011;46967;48.876;2.136;2023-04-07T09:58:11;12.02;;;3.72;;
61085;SDS011;46967;48.876;2.136;2023-04-07T10:00:37;11.63;;;3.88;;
61085;SDS011;46967;48.876;2.136;2023-04-07T10:03:04;9.73;;;3.40;;
61085;SDS011;46967;48.876;2.136;2023-04-07T10:05:29;8.73;;;2.97;;
61085;SDS011;46967;48.876;2.136;2023-04-07T10:07:55;7.70;;;2.90;;
61085;SDS011;46967;48.876;2.136;2023-04-07T10:10:21;7.10;;;2.63;;
61085;SDS011;46967;48.876;2.136;2023-04-07T10:12:46;5.00;;;2.70;;
61085;SDS011;46967;48.876;2.136;2023-04-07T10:15:13;7.63;;;3.10;;
61085;SDS011;46967;48.876;2.136;2023-04-07T10:17:40;7.50;;;2.70;;
61085;SDS011;46967;48.876;2.136;2023-04-07T10:20:11;5.13;;;2.13;;
61085;SDS011;46967;48.876;2.136;2023-04-07T10:22:39;6.95;;;1.70;;
61085;SDS011;46967;48.876;2.136;2023-04-07T10:25:10;5.05;;;1.50;;
61085;SDS011;46967;48.876;2.136;2023-04-07T10:27:39;3.67;;;1.30;;
61085;SDS011;46967;48.876;2.136;2023-04-07T10:30:14;4.60;;;1.30;;
61085;SDS011;46967;48.876;2.136;2023-04-07T10:32:48;3.67;;;1.60;;
61085;SDS011;46967;48.876;2.136;2023-04-07T10:35:14;5.80;;;1.98;;
61085;SDS011;46967;48.876;2.136;2023-04-07T10:37:42;3.45;;;1.50;;
61085;SDS011;46967;48.876;2.136;2023-04-07T10:40:32;4.38;;;1.35;;
61085;SDS011;46967;48.876;2.136;2023-04-07T10:42:59;3.65;;;1.50;;
61085;SDS011;46967;48.876;2.136;2023-04-07T10:48:17;4.07;;;1.40;;
61085;SDS011;46967;48.876;2.136;2023-04-07T10:53:29;6.82;;;1.95;;
61085;SDS011;46967;48.876;2.136;2023-04-07T10:55:55;6.25;;;1.88;;
61085;SDS011;46967;48.876;2.136;2023-04-07T10:58:28;6.15;;;1.90;;
61085;SDS011;46967;48.876;2.136;2023-04-07T11:03:23;6.43;;;1.55;;
61085;SDS011;46967;48.876;2.136;2023-04-07T11:05:48;1.92;;;1.25;;
61085;SDS011;46967;48.876;2.136;2023-04-07T11:08:14;7.15;;;1.75;;
61085;SDS011;46967;48.876;2.136;2023-04-07T11:10:40;6.03;;;1.83;;
61085;SDS011;46967;48.876;2.136;2023-04-07T11:13:11;5.25;;;1.77;;
61085;SDS011;46967;48.876;2.136;2023-04-07T11:15:37;7.40;;;2.17;;
61085;SDS011;46967;48.876;2.136;2023-04-07T11:20:41;6.60;;;1.40;;
61085;SDS011;46967;48.876;2.136;2023-04-07T11:23:07;4.50;;;1.27;;
61085;SDS011;46967;48.876;2.136;2023-04-07T11:25:33;7.13;;;1.17;;
61085;SDS011;46967;48.876;2.136;2023-04-07T11:27:59;1.77;;;0.95;;
61085;SDS011;46967;48.876;2.136;2023-04-07T11:30:25;5.18;;;1.25;;
61085;SDS011;46967;48.876;2.136;2023-04-07T11:32:50;2.78;;;1.13;;
61085;SDS011;46967;48.876;2.136;2023-04-07T11:35:16;3.58;;;1.17;;
61085;SDS011;46967;48.876;2.136;2023-04-07T11:37:41;7.50;;;1.30;;
61085;SDS011;46967;48.876;2.136;2023-04-07T11:40:07;2.72;;;1.10;;
61085;SDS011;46967;48.876;2.136;2023-04-07T11:42:33;4.03;;;1.10;;
61085;SDS011;46967;48.876;2.136;2023-04-07T11:45:02;6.53;;;1.67;;
61085;SDS011;46967;48.876;2.136;2023-04-07T11:47:35;2.38;;;0.85;;
61085;SDS011;46967;48.876;2.136;2023-04-07T11:50:01;2.13;;;0.90;;
61085;SDS011;46967;48.876;2.136;2023-04-07T11:52:27;4.05;;;1.13;;
61085;SDS011;46967;48.876;2.136;2023-04-07T11:54:52;3.67;;;1.23;;
61085;SDS011;46967;48.876;2.136;2023-04-07T11:57:24;5.57;;;1.00;;
61085;SDS011;46967;48.876;2.136;2023-04-07T12:00:09;5.93;;;1.23;;
61085;SDS011;46967;48.876;2.136;2023-04-07T12:02:36;4.05;;;1.10;;
61085;SDS011;46967;48.876;2.136;2023-04-07T12:05:02;6.28;;;0.93;;
61085;SDS011;46967;48.876;2.136;2023-04-07T12:07:28;3.10;;;1.10;;
61085;SDS011;46967;48.876;2.136;2023-04-07T12:09:53;6.05;;;1.50;;
61085;SDS011;46967;48.876;2.136;2023-04-07T12:12:28;5.72;;;1.40;;
61085;SDS011;46967;48.876;2.136;2023-04-07T12:14:54;3.78;;;1.15;;
61085;SDS011;46967;48.876;2.136;2023-04-07T12:17:23;3.08;;;1.00;;
61085;SDS011;46967;48.876;2.136;2023-04-07T12:19:51;4.95;;;1.40;;
61085;SDS011;46967;48.876;2.136;2023-04-07T12:22:17;3.70;;;1.20;;
61085;SDS011;46967;48.876;2.136;2023-04-07T12:24:43;6.47;;;1.27;;
61085;SDS011;46967;48.876;2.136;2023-04-07T12:27:08;5.03;;;1.20;;
61085;SDS011;46967;48.876;2.136;2023-04-07T12:29:34;6.07;;;1.20;;
61085;SDS011;46967;48.876;2.136;2023-04-07T12:32:01;8.07;;;1.63;;
61085;SDS011;46967;48.876;2.136;2023-04-07T12:34:27;4.45;;;1.95;;
61085;SDS011;46967;48.876;2.136;2023-04-07T12:36:52;6.47;;;1.45;;
61085;SDS011;46967;48.876;2.136;2023-04-07T12:39:17;4.15;;;1.30;;
61085;SDS011;46967;48.876;2.136;2023-04-07T12:41:43;5.25;;;1.58;;
61085;SDS011;46967;48.876;2.136;2023-04-07T12:44:12;7.55;;;1.88;;
61085;SDS011;46967;48.876;2.136;2023-04-07T12:46:38;5.47;;;1.38;;
61085;SDS011;46967;48.876;2.136;2023-04-07T12:49:03;5.72;;;1.10;;
61085;SDS011;46967;48.876;2.136;2023-04-07T12:51:29;3.60;;;1.35;;
61085;SDS011;46967;48.876;2.136;2023-04-07T12:53:55;6.43;;;1.05;;
61085;SDS011;46967;48.876;2.136;2023-04-07T12:56:20;4.00;;;1.30;;
61085;SDS011;46967;48.876;2.136;2023-04-07T12:58:46;5.75;;;1.30;;
61085;SDS011;46967;48.876;2.136;2023-04-07T13:01:12;5.82;;;1.23;;
61085;SDS011;46967;48.876;2.136;2023-04-07T13:03:38;2.80;;;0.90;;
61085;SDS011;46967;48.876;2.136;2023-04-07T13:06:04;7.38;;;1.30;;
61085;SDS011;46967;48.876;2.136;2023-04-07T13:08:29;1.98;;;0.80;;
61085;SDS011;46967;48.876;2.136;2023-04-07T13:10:55;3.22;;;1.05;;
61085;SDS011;46967;48.876;2.136;2023-04-07T13:13:20;3.13;;;0.75;;
61085;SDS011;46967;48.876;2.136;2023-04-07T13:15:46;4.60;;;1.02;;
61085;SDS011;46967;48.876;2.136;2023-04-07T13:18:11;6.53;;;1.20;;
61085;SDS011;46967;48.876;2.136;2023-04-07T13:20:37;3.70;;;1.33;;
61085;SDS011;46967;48.876;2.136;2023-04-07T13:23:02;7.75;;;1.30;;
61085;SDS011;46967;48.876;2.136;2023-04-07T13:25:28;5.88;;;1.10;;
61085;SDS011;46967;48.876;2.136;2023-04-07T13:27:53;6.57;;;1.08;;
61085;SDS011;46967;48.876;2.136;2023-04-07T13:30:18;4.53;;;1.20;;
61085;SDS011;46967;48.876;2.136;2023-04-07T13:32:44;3.88;;;0.90;;
61085;SDS011;46967;48.876;2.136;2023-04-07T13:35:13;5.32;;;1.02;;
61085;SDS011;46967;48.876;2.136;2023-04-07T13:37:40;2.38;;;0.90;;
61085;SDS011;46967;48.876;2.136;2023-04-07T13:40:06;6.90;;;1.17;;
61085;SDS011;46967;48.876;2.136;2023-04-07T13:42:31;4.20;;;0.90;;
61085;SDS011;46967;48.876;2.136;2023-04-07T13:44:57;3.22;;;1.17;;
61085;SDS011;46967;48.876;2.136;2023-04-07T13:47:22;4.00;;;0.90;;
61085;SDS011;46967;48.876;2.136;2023-04-07T13:49:48;3.88;;;1.10;;
61085;SDS011;46967;48.876;2.136;2023-04-07T13:52:15;5.78;;;1.20;;
61085;SDS011;46967;48.876;2.136;2023-04-07T13:54:41;4.90;;;1.35;;
61085;SDS011;46967;48.876;2.136;2023-04-07T13:57:08;3.45;;;1.10;;
61085;SDS011;46967;48.876;2.136;2023-04-07T13:59:33;4.30;;;1.17;;
61085;SDS011;46967;48.876;2.136;2023-04-07T14:01:59;4.82;;;1.55;;
61085;SDS011;46967;48.876;2.136;2023-04-07T14:04:24;4.45;;;1.10;;
61085;SDS011;46967;48.876;2.136;2023-04-07T14:06:50;5.55;;;1.25;;
61085;SDS011;46967;48.876;2.136;2023-04-07T14:09:15;2.03;;;0.95;;
61085;SDS011;46967;48.876;2.136;2023-04-07T14:11:40;2.90;;;0.73;;
61085;SDS011;46967;48.876;2.136;2023-04-07T14:14:06;3.60;;;0.70;;
61085;SDS011;46967;48.876;2.136;2023-04-07T14:16:31;5.65;;;0.95;;
61085;SDS011;46967;48.876;2.136;2023-04-07T14:18:56;3.80;;;1.20;;
61085;SDS011;46967;48.876;2.136;2023-04-07T14:21:22;2.17;;;1.10;;
61085;SDS011;46967;48.876;2.136;2023-04-07T14:23:47;5.30;;;1.00;;
61085;SDS011;46967;48.876;2.136;2023-04-07T14:26:13;2.75;;;0.95;;
61085;SDS011;46967;48.876;2.136;2023-04-07T14:28:38;3.15;;;1.00;;
61085;SDS011;46967;48.876;2.136;2023-04-07T14:31:04;2.13;;;1.45;;
61085;SDS011;46967;48.876;2.136;2023-04-07T14:33:29;2.50;;;0.90;;
61085;SDS011;46967;48.876;2.136;2023-04-07T14:35:55;2.95;;;1.20;;
61085;SDS011;46967;48.876;2.136;2023-04-07T14:38:21;3.67;;;1.13;;
61085;SDS011;46967;48.876;2.136;2023-04-07T14:40:49;5.93;;;0.93;;
61085;SDS011;46967;48.876;2.136;2023-04-07T14:43:15;3.50;;;1.05;;
61085;SDS011;46967;48.876;2.136;2023-04-07T14:45:40;2.17;;;0.80;;
61085;SDS011;46967;48.876;2.136;2023-04-07T14:48:05;2.80;;;0.73;;
61085;SDS011;46967;48.876;2.136;2023-04-07T14:50:32;3.90;;;0.73;;
61085;SDS011;46967;48.876;2.136;2023-04-07T14:52:57;4.75;;;0.77;;
61085;SDS011;46967;48.876;2.136;2023-04-07T14:55:23;6.50;;;1.23;;
61085;SDS011;46967;48.876;2.136;2023-04-07T14:57:49;3.70;;;1.10;;
61085;SDS011;46967;48.876;2.136;2023-04-07T15:00:15;4.82;;;0.65;;
61085;SDS011;46967;48.876;2.136;2023-04-07T15:02:40;3.70;;;0.68;;